Observation data for Clarendon on 06/24/2019      Previous  Date  Next       Current Mesonet Observations  Soil Data  Daily Summary Page  Observations in Plain Language
KCES 240500Z 03010KT 20/14 A2994 RMK A01 T01990138  RH  071%=      5-min Rain = 0
KCES 240505Z 03009KT 20/14 A2994 RMK A01 T01970137  RH  071%=      5-min Rain = 0
KCES 240510Z 03010KT 20/13 A2995 RMK A01 T01950134  RH  071%=      5-min Rain = 0
KCES 240515Z 03010KT 19/13 A2995 RMK A01 T01940133  RH  071%=      5-min Rain = 0
KCES 240520Z 03009KT 19/13 A2995 RMK A01 T01920132  RH  071%=      5-min Rain = 0
KCES 240525Z 04009KT 19/13 A2995 RMK A01 T01900132  RH  072%=      5-min Rain = 0
KCES 240530Z 04008KT 19/13 A2996 RMK A01 T01880132  RH  072%=      5-min Rain = 0
KCES 240535Z 03008KT 19/13 A2996 RMK A01 T01870132  RH  074%=      5-min Rain = 0
KCES 240540Z 03007KT 19/13 A2996 RMK A01 T01850132  RH  074%=      5-min Rain = 0
KCES 240545Z 03007KT 18/13 A2996 RMK A01 T01830133  RH  075%=      5-min Rain = 0
KCES 240550Z 03007KT 18/13 A2996 RMK A01 T01810133  RH  076%=      5-min Rain = 0
KCES 240555Z 03006KT 18/13 A2996 RMK A01 T01800133  RH  077%=      5-min Rain = 0
KCES 240600Z 03006KT 18/13 A2997 RMK A01 T01790134  RH  078%=      5-min Rain = 0
KCES 240605Z 03007KT 18/13 A2997 RMK A01 T01770134  RH  079%=      5-min Rain = 0
KCES 240610Z 04008KT 18/13 A2997 RMK A01 T01770134  RH  079%=      5-min Rain = 0
KCES 240615Z 04008KT 18/13 A2996 RMK A01 T01770134  RH  079%=      5-min Rain = 0
KCES 240620Z 04008KT 18/13 A2996 RMK A01 T01770132  RH  078%=      5-min Rain = 0
KCES 240625Z 03007KT 18/13 A2997 RMK A01 T01760131  RH  078%=      5-min Rain = 0
KCES 240630Z 03006KT 17/13 A2997 RMK A01 T01740130  RH  078%=      5-min Rain = 0
KCES 240635Z 03006KT 17/13 A2997 RMK A01 T01720130  RH  079%=      5-min Rain = 0
KCES 240640Z 02006KT 17/13 A2997 RMK A01 T01700129  RH  080%=      5-min Rain = 0
KCES 240645Z 02005KT 17/13 A2997 RMK A01 T01680128  RH  081%=      5-min Rain = 0
KCES 240650Z 02005KT 17/13 A2997 RMK A01 T01650128  RH  081%=      5-min Rain = 0
KCES 240655Z 02005KT 16/13 A2997 RMK A01 T01640127  RH  082%=      5-min Rain = 0
KCES 240700Z 02005KT 16/13 A2997 RMK A01 T01620127  RH  083%=      5-min Rain = 0
KCES 240705Z 01006KT 16/13 A2997 RMK A01 T01620127  RH  083%=      5-min Rain = 0
KCES 240710Z 01005KT 16/13 A2998 RMK A01 T01640128  RH  082%=      5-min Rain = 0
KCES 240715Z 01005KT 17/13 A2998 RMK A01 T01680129  RH  081%=      5-min Rain = 0
KCES 240720Z 02006KT 17/13 A2998 RMK A01 T01720127  RH  078%=      5-min Rain = 0
KCES 240725Z 03007KT 18/13 A2997 RMK A01 T01750128  RH  077%=      5-min Rain = 0
KCES 240730Z 03007KT 18/13 A2997 RMK A01 T01780126  RH  075%=      5-min Rain = 0
KCES 240735Z 03007KT 18/13 A2997 RMK A01 T01790126  RH  074%=      5-min Rain = 0
KCES 240740Z 03008KT 18/13 A2997 RMK A01 T01790125  RH  073%=      5-min Rain = 0
KCES 240745Z 03008KT 18/12 A2997 RMK A01 T01800123  RH  072%=      5-min Rain = 0
KCES 240750Z 03008KT 18/12 A2997 RMK A01 T01790121  RH  071%=      5-min Rain = 0
KCES 240755Z 03009KT 18/12 A2997 RMK A01 T01780118  RH  070%=      5-min Rain = 0
KCES 240800Z 03009KT 18/12 A2997 RMK A01 T01780116  RH  069%=      5-min Rain = 0
KCES 240805Z 03008KT 18/12 A2997 RMK A01 T01760115  RH  070%=      5-min Rain = 0
KCES 240810Z 02008KT 17/11 A2997 RMK A01 T01740114  RH  070%=      5-min Rain = 0
KCES 240815Z 02008KT 17/11 A2997 RMK A01 T01730112  RH  070%=      5-min Rain = 0
KCES 240820Z 03008KT 17/11 A2996 RMK A01 T01720111  RH  070%=      5-min Rain = 0
KCES 240825Z 03009KT 17/11 A2996 RMK A01 T01730110  RH  069%=      5-min Rain = 0
KCES 240830Z 03008KT 18/11 A2996 RMK A01 T01750108  RH  067%=      5-min Rain = 0
KCES 240835Z 02007KT 18/11 A2997 RMK A01 T01750108  RH  067%=      5-min Rain = 0
KCES 240840Z 02007KT 18/11 A2997 RMK A01 T01750108  RH  067%=      5-min Rain = 0
KCES 240845Z 02008KT 18/11 A2997 RMK A01 T01770107  RH  066%=      5-min Rain = 0
KCES 240850Z 02009KT 18/11 A2997 RMK A01 T01800105  RH  063%=      5-min Rain = 0
KCES 240855Z 02009KT 18/10 A2997 RMK A01 T01830103  RH  062%=      5-min Rain = 0
KCES 240900Z 02009KT 18/10 A2997 RMK A01 T01840102  RH  060%=      5-min Rain = 0
KCES 240905Z 02009KT 19/10 A2997 RMK A01 T01860099  RH  059%=      5-min Rain = 0
KCES 240910Z 02009KT 19/10 A2997 RMK A01 T01860098  RH  058%=      5-min Rain = 0
KCES 240915Z 02009KT 19/10 A2997 RMK A01 T01850097  RH  058%=      5-min Rain = 0
KCES 240920Z 04008KT 18/10 A2997 RMK A01 T01830096  RH  058%=      5-min Rain = 0
KCES 240925Z 05008KT 18/09 A2997 RMK A01 T01810094  RH  059%=      5-min Rain = 0
KCES 240930Z 05007KT 18/10 A2998 RMK A01 T01790095  RH  060%=      5-min Rain = 0
KCES 240935Z 04007KT 18/10 A2998 RMK A01 T01760096  RH  061%=      5-min Rain = 0
KCES 240940Z 04007KT 17/10 A2998 RMK A01 T01740096  RH  062%=      5-min Rain = 0
KCES 240945Z 04007KT 17/10 A2998 RMK A01 T01720096  RH  063%=      5-min Rain = 0
KCES 240950Z 04006KT 17/10 A2998 RMK A01 T01700097  RH  064%=      5-min Rain = 0
KCES 240955Z 03006KT 17/10 A2998 RMK A01 T01670097  RH  065%=      5-min Rain = 0
KCES 241000Z 03006KT 16/10 A2998 RMK A01 T01640098  RH  067%=      5-min Rain = 0
KCES 241005Z 02005KT 16/10 A2998 RMK A01 T01590098  RH  069%=      5-min Rain = 0
KCES 241010Z 01004KT 16/10 A2998 RMK A01 T01550098  RH  071%=      5-min Rain = 0
KCES 241015Z 01004KT 15/10 A2998 RMK A01 T01520097  RH  072%=      5-min Rain = 0
KCES 241020Z 01004KT 15/10 A2998 RMK A01 T01510097  RH  072%=      5-min Rain = 0
KCES 241025Z 01004KT 15/10 A2998 RMK A01 T01530096  RH  071%=      5-min Rain = 0
KCES 241030Z 02005KT 15/10 A2998 RMK A01 T01520096  RH  071%=      5-min Rain = 0
KCES 241035Z 02005KT 15/10 A2998 RMK A01 T01510096  RH  072%=      5-min Rain = 0
KCES 241040Z 01006KT 15/10 A2998 RMK A01 T01480097  RH  074%=      5-min Rain = 0
KCES 241045Z 01006KT 14/10 A2998 RMK A01 T01430097  RH  076%=      5-min Rain = 0
KCES 241050Z 02005KT 15/10 A2999 RMK A01 T01460098  RH  075%=      5-min Rain = 0
KCES 241055Z 01004KT 15/10 A2999 RMK A01 T01490101  RH  075%=      5-min Rain = 0
KCES 241100Z 02001KT 15/10 A2999 RMK A01 T01510103  RH  076%=      5-min Rain = 0
KCES 241105Z 16002KT 15/10 A30 RMK A01 T01530104  RH  075%=      5-min Rain = 0
KCES 241110Z 14002KT 16/10 A30 RMK A01 T01560102  RH  073%=      5-min Rain = 0
KCES 241115Z 08002KT 16/10 A30 RMK A01 T01610101  RH  070%=      5-min Rain = 0
KCES 241120Z 05002KT 17/10 A30 RMK A01 T01660101  RH  068%=      5-min Rain = 0
KCES 241125Z 03003KT 17/11 A30 RMK A01 T01670105  RH  069%=      5-min Rain = 0
KCES 241130Z 02003KT 17/11 A30 RMK A01 T01660106  RH  070%=      5-min Rain = 0
KCES 241135Z 02003KT 17/11 A3001 RMK A01 T01660106  RH  070%=      5-min Rain = 0
KCES 241140Z 01002KT 17/11 A3001 RMK A01 T01660109  RH  071%=      5-min Rain = 0
KCES 241145Z 36004KT 17/11 A3001 RMK A01 T01660111  RH  073%=      5-min Rain = 0
KCES 241150Z 32005KT 16/11 A3001 RMK A01 T01640109  RH  072%=      5-min Rain = 0
KCES 241155Z 01006KT 17/10 A3001 RMK A01 T01650101  RH  068%=      5-min Rain = 0
KCES 241200Z 01006KT 17/10 A3001 RMK A01 T01670099  RH  066%=      5-min Rain = 0
KCES 241205Z 00005KT 17/10 A3001 RMK A01 T01680098  RH  065%=      5-min Rain = 0
KCES 241210Z 35005KT 17/10 A3001 RMK A01 T01690101  RH  066%=      5-min Rain = 0
KCES 241215Z 35005KT 17/10 A3001 RMK A01 T01690102  RH  067%=      5-min Rain = 0
KCES 241220Z 35005KT 17/10 A3001 RMK A01 T01710102  RH  066%=      5-min Rain = 0
KCES 241225Z 00004KT 18/10 A3002 RMK A01 T01750102  RH  065%=      5-min Rain = 0
KCES 241230Z 01005KT 18/10 A3002 RMK A01 T01790101  RH  063%=      5-min Rain = 0
KCES 241235Z 01005KT 18/10 A3002 RMK A01 T01820099  RH  060%=      5-min Rain = 0
KCES 241240Z 02004KT 18/10 A3002 RMK A01 T01830099  RH  060%=      5-min Rain = 0
KCES 241245Z 03004KT 19/10 A3002 RMK A01 T01850099  RH  059%=      5-min Rain = 0
KCES 241250Z 05003KT 19/10 A3002 RMK A01 T01880098  RH  058%=      5-min Rain = 0
KCES 241255Z 08002KT 19/10 A3003 RMK A01 T01910096  RH  056%=      5-min Rain = 0
KCES 241300Z 05002KT 19/10 A3003 RMK A01 T01940098  RH  056%=      5-min Rain = 0
KCES 241305Z 36001KT 20/10 A3003 RMK A01 T01950098  RH  055%=      5-min Rain = 0
KCES 241310Z 05000KT 20/10 A3003 RMK A01 T01970099  RH  055%=      5-min Rain = 0
KCES 241315Z 05002KT 20/10 A3003 RMK A01 T02030096  RH  052%=      5-min Rain = 0
KCES 241320Z 04002KT 20/09 A3003 RMK A01 T02020092  RH  051%=      5-min Rain = 0
KCES 241325Z 01002KT 20/09 A3003 RMK A01 T02030090  RH  050%=      5-min Rain = 0
KCES 241330Z 03004KT 20/09 A3003 RMK A01 T02020085  RH  048%=      5-min Rain = 0
KCES 241335Z 03004KT 20/09 A3003 RMK A01 T02030085  RH  048%=      5-min Rain = 0
KCES 241340Z 03003KT 20/08 A3003 RMK A01 T02040084  RH  047%=      5-min Rain = 0
KCES 241345Z 02003KT 21/09 A3003 RMK A01 T02060086  RH  047%=      5-min Rain = 0
KCES 241350Z 36003KT 21/09 A3003 RMK A01 T02060088  RH  048%=      5-min Rain = 0
KCES 241355Z 04002KT 21/08 A3003 RMK A01 T02080084  RH  046%=      5-min Rain = 0
KCES 241400Z 06002KT 21/08 A3004 RMK A01 T02120077  RH  043%=      5-min Rain = 0
KCES 241405Z 04003KT 22/08 A3004 RMK A01 T02150075  RH  042%=      5-min Rain = 0
KCES 241410Z 02004KT 22/08 A3004 RMK A01 T02150076  RH  042%=      5-min Rain = 0
KCES 241415Z 02002KT 22/08 A3004 RMK A01 T02170076  RH  041%=      5-min Rain = 0
KCES 241420Z 04003KT 22/07 A3004 RMK A01 T02190065  RH  038%=      5-min Rain = 0
KCES 241425Z 07002KT 22/07 A3004 RMK A01 T02230073  RH  039%=      5-min Rain = 0
KCES 241430Z 36003KT 22/07 A3004 RMK A01 T02240074  RH  039%=      5-min Rain = 0
KCES 241435Z 02003KT 22/08 A3004 RMK A01 T02240076  RH  040%=      5-min Rain = 0
KCES 241440Z 03002KT 23/08 A3004 RMK A01 T02260075  RH  039%=      5-min Rain = 0
KCES 241445Z 07003KT 23/07 A3004 RMK A01 T02270074  RH  038%=      5-min Rain = 0
KCES 241450Z 06003KT 23/08 A3004 RMK A01 T02270077  RH  039%=      5-min Rain = 0
KCES 241455Z 04003KT 23/07 A3004 RMK A01 T02290074  RH  038%=      5-min Rain = 0
KCES 241500Z 02002KT 23/07 A3004 RMK A01 T02310073  RH  037%=      5-min Rain = 0
KCES 241505Z 09003KT 23/07 A3004 RMK A01 T02310073  RH  037%=      5-min Rain = 0
KCES 241510Z 11003KT 23/07 A3004 RMK A01 T02300072  RH  037%=      5-min Rain = 0
KCES 241515Z 12003KT 23/07 A3004 RMK A01 T02330069  RH  036%=      5-min Rain = 0
KCES 241520Z 07002KT 24/07 A3004 RMK A01 T02370072  RH  036%=      5-min Rain = 0
KCES 241525Z 06002KT 24/08 A3004 RMK A01 T02410078  RH  036%=      5-min Rain = 0
KCES 241530Z 04002KT 24/08 A3003 RMK A01 T02430080  RH  036%=      5-min Rain = 0
KCES 241535Z 09004KT 24/08 A3003 RMK A01 T02410077  RH  036%=      5-min Rain = 0
KCES 241540Z 09003KT 24/08 A3003 RMK A01 T02400080  RH  037%=      5-min Rain = 0
KCES 241545Z 08002KT 25/08 A3003 RMK A01 T02450082  RH  036%=      5-min Rain = 0
KCES 241550Z 02003KT 25/08 A3003 RMK A01 T02450081  RH  036%=      5-min Rain = 0
KCES 241555Z 31002KT 25/08 A3003 RMK A01 T02460081  RH  036%=      5-min Rain = 0
KCES 241600Z 01004KT 25/08 A3002 RMK A01 T02500081  RH  035%=      5-min Rain = 0
KCES 241605Z 01003KT 25/08 A3003 RMK A01 T02510077  RH  034%=      5-min Rain = 0
KCES 241610Z 31001KT 25/08 A3003 RMK A01 T02520076  RH  034%=      5-min Rain = 0
KCES 241615Z 08002KT 25/08 A3003 RMK A01 T02520077  RH  034%=      5-min Rain = 0
KCES 241620Z 11003KT 25/08 A3003 RMK A01 T02530078  RH  034%=      5-min Rain = 0
KCES 241625Z 12002KT 26/08 A3003 RMK A01 T02550077  RH  033%=      5-min Rain = 0
KCES 241630Z 10004KT 26/08 A3003 RMK A01 T02570077  RH  033%=      5-min Rain = 0
KCES 241635Z 12004KT 26/08 A3003 RMK A01 T02570075  RH  032%=      5-min Rain = 0
KCES 241640Z 08003KT 26/07 A3003 RMK A01 T02610074  RH  031%=      5-min Rain = 0
KCES 241645Z 11003KT 26/07 A3003 RMK A01 T02610071  RH  031%=      5-min Rain = 0
KCES 241650Z 09003KT 26/08 A3003 RMK A01 T02620078  RH  032%=      5-min Rain = 0
KCES 241655Z 34002KT 27/08 A3003 RMK A01 T02650076  RH  031%=      5-min Rain = 0
KCES 241700Z 10004G9KT 27/08 A3002 RMK A01 T02670083  RH  032%=      5-min Rain = 0
KCES 241705Z 13004KT 27/08 A3003 RMK A01 T02660081  RH  032%=      5-min Rain = 0
KCES 241710Z 13003KT 27/08 A3002 RMK A01 T02670081  RH  032%=      5-min Rain = 0
KCES 241715Z 06004KT 27/09 A3002 RMK A01 T02710085  RH  032%=      5-min Rain = 0
KCES 241720Z 07002KT 27/08 A3002 RMK A01 T02710083  RH  031%=      5-min Rain = 0
KCES 241725Z 13003KT 28/09 A3002 RMK A01 T02750085  RH  031%=      5-min Rain = 0
KCES 241730Z 15003KT 28/09 A3002 RMK A01 T02760085  RH  031%=      5-min Rain = 0
KCES 241735Z 12006KT 28/08 A3002 RMK A01 T02750084  RH  031%=      5-min Rain = 0
KCES 241740Z 15003KT 27/08 A3001 RMK A01 T02730084  RH  031%=      5-min Rain = 0
KCES 241745Z 09004KT 28/09 A3001 RMK A01 T02770086  RH  031%=      5-min Rain = 0
KCES 241750Z 11004KT 28/09 A3001 RMK A01 T02780089  RH  031%=      5-min Rain = 0
KCES 241755Z 10006KT 28/09 A3001 RMK A01 T02780088  RH  031%=      5-min Rain = 0
KCES 241800Z 08005KT 28/09 A3001 RMK A01 T02760087  RH  031%=      5-min Rain = 0
KCES 241805Z 12005KT 28/09 A3001 RMK A01 T02780087  RH  031%=      5-min Rain = 0
KCES 241810Z 11005KT 28/08 A3001 RMK A01 T02790084  RH  030%=      5-min Rain = 0
KCES 241815Z 14004G9KT 28/09 A30 RMK A01 T02780085  RH  031%=      5-min Rain = 0
KCES 241820Z 17005G10KT 28/09 A30 RMK A01 T02840087  RH  030%=      5-min Rain = 0
KCES 241825Z 14007KT 29/09 A30 RMK A01 T02870088  RH  030%=      5-min Rain = 0
KCES 241830Z 12006G18KT 29/09 A30 RMK A01 T02860089  RH  030%=      5-min Rain = 0
KCES 241835Z 10008G13KT 29/09 A2999 RMK A01 T02870090  RH  030%=      5-min Rain = 0
KCES 241840Z 14008G13KT 29/09 A2999 RMK A01 T02860088  RH  030%=      5-min Rain = 0
KCES 241845Z 10003G8KT 29/09 A2999 RMK A01 T02850085  RH  029%=      5-min Rain = 0
KCES 241850Z 09006KT 29/09 A2999 RMK A01 T02870089  RH  030%=      5-min Rain = 0
KCES 241855Z 10006G12KT 29/09 A2999 RMK A01 T02880089  RH  030%=      5-min Rain = 0
KCES 241900Z 14007G12KT 29/09 A2999 RMK A01 T02890089  RH  030%=      5-min Rain = 0
KCES 241905Z 11003KT 29/09 A2999 RMK A01 T02870088  RH  029%=      5-min Rain = 0
KCES 241910Z 13008G13KT 29/09 A2998 RMK A01 T02900092  RH  030%=      5-min Rain = 0
KCES 241915Z 15007G13KT 29/09 A2998 RMK A01 T02920089  RH  029%=      5-min Rain = 0
KCES 241920Z 12008G14KT 29/09 A2998 RMK A01 T02930089  RH  029%=      5-min Rain = 0
KCES 241925Z 13006KT 29/09 A2998 RMK A01 T02910089  RH  029%=      5-min Rain = 0
KCES 241930Z 12009G15KT 29/09 A2998 RMK A01 T02920089  RH  029%=      5-min Rain = 0
KCES 241935Z 09006G11KT 29/09 A2998 RMK A01 T02940092  RH  029%=      5-min Rain = 0
KCES 241940Z 14008G15KT 30/09 A2997 RMK A01 T02980092  RH  029%=      5-min Rain = 0
KCES 241945Z 13006G12KT 29/09 A2997 RMK A01 T02940086  RH  028%=      5-min Rain = 0
KCES 241950Z 14006G12KT 29/09 A2997 RMK A01 T02940089  RH  029%=      5-min Rain = 0
KCES 241955Z 15009G14KT 30/09 A2997 RMK A01 T02990087  RH  027%=      5-min Rain = 0
KCES 242000Z 18006KT 30/09 A2997 RMK A01 T02990085  RH  027%=      5-min Rain = 0
KCES 242005Z 12007G12KT 30/09 A2997 RMK A01 T03010086  RH  027%=      5-min Rain = 0
KCES 242010Z 15010G16KT 30/09 A2997 RMK A01 T03000086  RH  027%=      5-min Rain = 0
KCES 242015Z 17007G12KT 30/09 A2997 RMK A01 T03030087  RH  027%=      5-min Rain = 0
KCES 242020Z 15009G18KT 31/09 A2996 RMK A01 T03050086  RH  026%=      5-min Rain = 0
KCES 242025Z 15010G15KT 30/08 A2996 RMK A01 T03000082  RH  026%=      5-min Rain = 0
KCES 242030Z 17010G15KT 30/08 A2996 RMK A01 T03030082  RH  026%=      5-min Rain = 0
KCES 242035Z 15006G12KT 30/08 A2996 RMK A01 T03010082  RH  026%=      5-min Rain = 0
KCES 242040Z 14007G12KT 30/08 A2996 RMK A01 T02990080  RH  026%=      5-min Rain = 0
KCES 242045Z 13008KT 30/08 A2996 RMK A01 T03000082  RH  026%=      5-min Rain = 0
KCES 242050Z 13005KT 30/08 A2995 RMK A01 T02980082  RH  027%=      5-min Rain = 0
KCES 242055Z 13009KT 30/09 A2995 RMK A01 T03030085  RH  026%=      5-min Rain = 0
KCES 242100Z 15010G17KT 31/09 A2995 RMK A01 T03080085  RH  026%=      5-min Rain = 0
KCES 242105Z 14010G16KT 31/08 A2995 RMK A01 T03060083  RH  026%=      5-min Rain = 0
KCES 242110Z 15009G15KT 30/08 A2995 RMK A01 T03020081  RH  026%=      5-min Rain = 0
KCES 242115Z 13007KT 30/08 A2995 RMK A01 T03020081  RH  026%=      5-min Rain = 0
KCES 242120Z 14006G11KT 31/09 A2995 RMK A01 T03050085  RH  026%=      5-min Rain = 0
KCES 242125Z 16012G17KT 31/09 A2995 RMK A01 T03080085  RH  026%=      5-min Rain = 0
KCES 242130Z 16007G12KT 31/09 A2994 RMK A01 T03080087  RH  026%=      5-min Rain = 0
KCES 242135Z 17010G15KT 31/08 A2994 RMK A01 T03100083  RH  025%=      5-min Rain = 0
KCES 242140Z 17005G11KT 30/08 A2994 RMK A01 T03040084  RH  026%=      5-min Rain = 0
KCES 242145Z 16006KT 31/08 A2994 RMK A01 T03050084  RH  026%=      5-min Rain = 0
KCES 242150Z 13007KT 30/09 A2994 RMK A01 T03040087  RH  027%=      5-min Rain = 0
KCES 242155Z 19009G14KT 31/09 A2994 RMK A01 T03100086  RH  026%=      5-min Rain = 0
KCES 242200Z 16009KT 31/08 A2994 RMK A01 T03110082  RH  025%=      5-min Rain = 0
KCES 242205Z 15007G20KT 31/08 A2994 RMK A01 T03070080  RH  025%=      5-min Rain = 0
KCES 242210Z 17006G11KT 31/09 A2993 RMK A01 T03080086  RH  026%=      5-min Rain = 0
KCES 242215Z 20005G11KT 31/09 A2993 RMK A01 T03080088  RH  026%=      5-min Rain = 0
KCES 242220Z 14010G15KT 31/09 A2993 RMK A01 T03080093  RH  027%=      5-min Rain = 0
KCES 242225Z 14008KT 31/09 A2993 RMK A01 T03090091  RH  027%=      5-min Rain = 0
KCES 242230Z 15010KT 31/09 A2993 RMK A01 T03070093  RH  027%=      5-min Rain = 0
KCES 242235Z 12008G13KT 31/10 A2993 RMK A01 T03070096  RH  028%=      5-min Rain = 0
KCES 242240Z 13011KT 31/10 A2993 RMK A01 T03070097  RH  028%=      5-min Rain = 0
KCES 242245Z 15007KT 31/09 A2992 RMK A01 T03060094  RH  028%=      5-min Rain = 0
KCES 242250Z 18009G16KT 31/09 A2992 RMK A01 T03100093  RH  027%=      5-min Rain = 0
KCES 242255Z 17012G17KT 31/09 A2992 RMK A01 T03100092  RH  027%=      5-min Rain = 0
KCES 242300Z 18014KT 31/09 A2992 RMK A01 T03090093  RH  027%=      5-min Rain = 0
KCES 242305Z 18010G15KT 31/10 A2992 RMK A01 T03090096  RH  028%=      5-min Rain = 0
KCES 242310Z 17006KT 31/10 A2992 RMK A01 T03100095  RH  027%=      5-min Rain = 0
KCES 242315Z 16006G11KT 31/09 A2991 RMK A01 T03100094  RH  027%=      5-min Rain = 0
KCES 242320Z 15010KT 31/09 A2991 RMK A01 T03060093  RH  027%=      5-min Rain = 0
KCES 242325Z 15009KT 31/10 A2991 RMK A01 T03060095  RH  028%=      5-min Rain = 0
KCES 242330Z 13008KT 31/10 A2991 RMK A01 T03050096  RH  028%=      5-min Rain = 0
KCES 242335Z 13008KT 30/10 A2991 RMK A01 T03030095  RH  028%=      5-min Rain = 0
KCES 242340Z 13007KT 30/10 A2991 RMK A01 T03030095  RH  028%=      5-min Rain = 0
KCES 242345Z 15008KT 30/09 A2991 RMK A01 T03030094  RH  028%=      5-min Rain = 0
KCES 242350Z 15009G14KT 31/10 A2991 RMK A01 T03050096  RH  028%=      5-min Rain = 0
KCES 242355Z 15009KT 31/10 A2991 RMK A01 T03060096  RH  028%=      5-min Rain = 0
KCES 250000Z 16010KT 30/10 A2991 RMK A01 T03040097  RH  029%=      5-min Rain = 0
KCES 250005Z 15011KT 30/10 A2991 RMK A01 T03020096  RH  029%=      5-min Rain = 0
KCES 250010Z 14010G15KT 30/10 A299 RMK A01 T03010097  RH  029%=      5-min Rain = 0
KCES 250015Z 14010KT 30/10 A2991 RMK A01 T02990095  RH  029%=      5-min Rain = 0
KCES 250020Z 15009KT 30/10 A2991 RMK A01 T02980095  RH  029%=      5-min Rain = 0
KCES 250025Z 14010KT 30/10 A2991 RMK A01 T02970096  RH  030%=      5-min Rain = 0
KCES 250030Z 15010G15KT 30/10 A2991 RMK A01 T02970098  RH  030%=      5-min Rain = 0
KCES 250035Z 16010G16KT 30/10 A2991 RMK A01 T02980097  RH  030%=      5-min Rain = 0
KCES 250040Z 14013G18KT 29/10 A2991 RMK A01 T02940099  RH  031%=      5-min Rain = 0
KCES 250045Z 13011KT 29/10 A2991 RMK A01 T02920099  RH  031%=      5-min Rain = 0
KCES 250050Z 13012G19KT 29/10 A2991 RMK A01 T02900102  RH  032%=      5-min Rain = 0
KCES 250055Z 13013KT 29/10 A2991 RMK A01 T02890103  RH  033%=      5-min Rain = 0
KCES 250100Z 12012G17KT 29/10 A2991 RMK A01 T02870104  RH  033%=      5-min Rain = 0
KCES 250105Z 12014KT 29/10 A2991 RMK A01 T02850102  RH  033%=      5-min Rain = 0
KCES 250110Z 13015G20KT 28/10 A2991 RMK A01 T02830103  RH  034%=      5-min Rain = 0
KCES 250115Z 12015KT 28/10 A2992 RMK A01 T02810102  RH  034%=      5-min Rain = 0
KCES 250120Z 12014G19KT 28/10 A2992 RMK A01 T02790103  RH  034%=      5-min Rain = 0
KCES 250125Z 12012G17KT 28/11 A2992 RMK A01 T02770105  RH  035%=      5-min Rain = 0
KCES 250130Z 12014KT 28/10 A2993 RMK A01 T02750104  RH  036%=      5-min Rain = 0
KCES 250135Z 12012KT 27/11 A2993 RMK A01 T02720106  RH  037%=      5-min Rain = 0
KCES 250140Z 12012KT 27/11 A2993 RMK A01 T02690108  RH  038%=      5-min Rain = 0
KCES 250145Z 12011KT 27/11 A2993 RMK A01 T02670109  RH  039%=      5-min Rain = 0
KCES 250150Z 13013KT 27/11 A2993 RMK A01 T02650110  RH  039%=      5-min Rain = 0
KCES 250155Z 13013KT 27/11 A2993 RMK A01 T02650110  RH  039%=      5-min Rain = 0
KCES 250200Z 13011KT 26/11 A2993 RMK A01 T02620111  RH  040%=      5-min Rain = 0
KCES 250205Z 13012KT 26/11 A2994 RMK A01 T02600111  RH  041%=      5-min Rain = 0
KCES 250210Z 13012KT 26/11 A2994 RMK A01 T02590110  RH  041%=      5-min Rain = 0
KCES 250215Z 13011KT 26/11 A2993 RMK A01 T02580109  RH  041%=      5-min Rain = 0
KCES 250220Z 12011KT 26/11 A2993 RMK A01 T02560108  RH  041%=      5-min Rain = 0
KCES 250225Z 12010KT 25/11 A2993 RMK A01 T02540109  RH  042%=      5-min Rain = 0
KCES 250230Z 12010KT 25/11 A2993 RMK A01 T02520110  RH  042%=      5-min Rain = 0
KCES 250235Z 13009KT 25/11 A2993 RMK A01 T02500111  RH  043%=      5-min Rain = 0
KCES 250240Z 13009KT 25/11 A2993 RMK A01 T02480112  RH  044%=      5-min Rain = 0
KCES 250245Z 13009KT 25/11 A2994 RMK A01 T02450113  RH  045%=      5-min Rain = 0
KCES 250250Z 13008KT 24/11 A2994 RMK A01 T02430113  RH  046%=      5-min Rain = 0
KCES 250255Z 13009KT 24/11 A2994 RMK A01 T02410113  RH  046%=      5-min Rain = 0
KCES 250300Z 13009KT 24/11 A2994 RMK A01 T02400113  RH  047%=      5-min Rain = 0
KCES 250305Z 13009KT 24/11 A2994 RMK A01 T02390114  RH  047%=      5-min Rain = 0
KCES 250310Z 13008KT 24/12 A2994 RMK A01 T02380115  RH  048%=      5-min Rain = 0
KCES 250315Z 13009KT 24/12 A2994 RMK A01 T02370115  RH  048%=      5-min Rain = 0
KCES 250320Z 13009KT 24/12 A2994 RMK A01 T02370116  RH  048%=      5-min Rain = 0
KCES 250325Z 14009KT 24/12 A2994 RMK A01 T02360117  RH  049%=      5-min Rain = 0
KCES 250330Z 14009KT 24/12 A2995 RMK A01 T02350118  RH  049%=      5-min Rain = 0
KCES 250335Z 13011KT 24/12 A2995 RMK A01 T02350119  RH  050%=      5-min Rain = 0
KCES 250340Z 13010KT 24/12 A2995 RMK A01 T02350120  RH  050%=      5-min Rain = 0
KCES 250345Z 13010KT 24/12 A2995 RMK A01 T02350121  RH  051%=      5-min Rain = 0
KCES 250350Z 14010KT 24/12 A2995 RMK A01 T02350122  RH  051%=      5-min Rain = 0
KCES 250355Z 14011KT 23/12 A2995 RMK A01 T02340124  RH  052%=      5-min Rain = 0
KCES 250400Z 14012KT 24/13 A2995 RMK A01 T02350126  RH  052%=      5-min Rain = 0
KCES 250405Z 14011KT 24/13 A2996 RMK A01 T02350128  RH  053%=      5-min Rain = 0
KCES 250410Z 13010KT 23/13 A2996 RMK A01 T02340130  RH  054%=      5-min Rain = 0
KCES 250415Z 13010KT 23/13 A2996 RMK A01 T02330130  RH  055%=      5-min Rain = 0
KCES 250420Z 13010KT 23/13 A2996 RMK A01 T02310130  RH  055%=      5-min Rain = 0
KCES 250425Z 13011KT 23/13 A2996 RMK A01 T02300131  RH  056%=      5-min Rain = 0
KCES 250430Z 13010KT 23/13 A2996 RMK A01 T02300133  RH  056%=      5-min Rain = 0
KCES 250435Z 13011KT 23/14 A2996 RMK A01 T02300135  RH  057%=      5-min Rain = 0
KCES 250440Z 13012KT 23/14 A2996 RMK A01 T02300138  RH  059%=      5-min Rain = 0
KCES 250445Z 13011KT 23/14 A2996 RMK A01 T02300142  RH  060%=      5-min Rain = 0
KCES 250450Z 13011KT 23/14 A2996 RMK A01 T02290144  RH  061%=      5-min Rain = 0
KCES 250455Z 13010KT 23/15 A2996 RMK A01 T02280146  RH  062%=      5-min Rain = 0

Page generated in 0.0153 seconds.